sensor_id;sensor_type;location;lat;lon;timestamp;pressure;altitude;pressure_sealevel;temperature;humidity
8641;BME280;4358;42.100;25.222;2023-12-04T00:01:29;100535.91;;;6.06;100.00
8641;BME280;4358;42.100;25.222;2023-12-04T00:03:57;100539.81;;;5.95;100.00
8641;BME280;4358;42.100;25.222;2023-12-04T00:06:24;100544.03;;;6.00;100.00
8641;BME280;4358;42.100;25.222;2023-12-04T00:08:51;100555.84;;;5.89;100.00
8641;BME280;4358;42.100;25.222;2023-12-04T00:11:18;100551.56;;;5.85;100.00
8641;BME280;4358;42.100;25.222;2023-12-04T00:13:45;100559.66;;;5.81;100.00
8641;BME280;4358;42.100;25.222;2023-12-04T00:16:13;100563.28;;;5.77;100.00
8641;BME280;4358;42.100;25.222;2023-12-04T00:18:40;100561.81;;;5.70;100.00
8641;BME280;4358;42.100;25.222;2023-12-04T00:21:07;100557.84;;;5.58;100.00
8641;BME280;4358;42.100;25.222;2023-12-04T00:23:34;100584.88;;;5.63;100.00
8641;BME280;4358;42.100;25.222;2023-12-04T00:26:01;100584.19;;;5.58;100.00
8641;BME280;4358;42.100;25.222;2023-12-04T00:28:29;100580.72;;;5.56;100.00
8641;BME280;4358;42.100;25.222;2023-12-04T00:30:56;100565.09;;;5.51;100.00
8641;BME280;4358;42.100;25.222;2023-12-04T00:33:24;100572.34;;;5.45;100.00
8641;BME280;4358;42.100;25.222;2023-12-04T00:35:51;100584.72;;;5.43;100.00
8641;BME280;4358;42.100;25.222;2023-12-04T00:38:18;100600.19;;;5.52;100.00
8641;BME280;4358;42.100;25.222;2023-12-04T00:40:45;100587.03;;;5.52;100.00
8641;BME280;4358;42.100;25.222;2023-12-04T00:43:12;100602.78;;;5.53;100.00
8641;BME280;4358;42.100;25.222;2023-12-04T00:45:39;100617.59;;;5.56;100.00
8641;BME280;4358;42.100;25.222;2023-12-04T00:48:06;100602.44;;;5.38;100.00
8641;BME280;4358;42.100;25.222;2023-12-04T00:50:34;100609.13;;;5.48;100.00
8641;BME280;4358;42.100;25.222;2023-12-04T00:53:01;100610.72;;;5.52;100.00
8641;BME280;4358;42.100;25.222;2023-12-04T00:55:29;100608.13;;;5.50;100.00
8641;BME280;4358;42.100;25.222;2023-12-04T00:57:56;100607.50;;;5.44;100.00
8641;BME280;4358;42.100;25.222;2023-12-04T01:00:23;100609.66;;;5.33;100.00
8641;BME280;4358;42.100;25.222;2023-12-04T01:02:53;100606.00;;;5.37;100.00
8641;BME280;4358;42.100;25.222;2023-12-04T01:05:20;100604.88;;;5.44;100.00
8641;BME280;4358;42.100;25.222;2023-12-04T01:07:49;100612.53;;;5.50;100.00
8641;BME280;4358;42.100;25.222;2023-12-04T01:10:15;100607.38;;;5.47;100.00
8641;BME280;4358;42.100;25.222;2023-12-04T01:12:42;100600.31;;;5.49;100.00
8641;BME280;4358;42.100;25.222;2023-12-04T01:15:09;100599.06;;;5.59;100.00
8641;BME280;4358;42.100;25.222;2023-12-04T01:17:36;100617.03;;;5.71;100.00
8641;BME280;4358;42.100;25.222;2023-12-04T01:20:04;100621.78;;;5.62;100.00
8641;BME280;4358;42.100;25.222;2023-12-04T01:22:31;100612.53;;;5.50;100.00
8641;BME280;4358;42.100;25.222;2023-12-04T01:25:00;100619.16;;;5.37;100.00
8641;BME280;4358;42.100;25.222;2023-12-04T01:27:28;100628.66;;;5.41;100.00
8641;BME280;4358;42.100;25.222;2023-12-04T01:29:55;100629.56;;;5.40;100.00
8641;BME280;4358;42.100;25.222;2023-12-04T01:32:22;100634.78;;;5.41;100.00
8641;BME280;4358;42.100;25.222;2023-12-04T01:34:49;100632.31;;;5.37;100.00
8641;BME280;4358;42.100;25.222;2023-12-04T01:37:16;100634.03;;;5.38;100.00
8641;BME280;4358;42.100;25.222;2023-12-04T01:39:43;100638.44;;;5.37;100.00
8641;BME280;4358;42.100;25.222;2023-12-04T01:42:11;100637.00;;;5.53;100.00
8641;BME280;4358;42.100;25.222;2023-12-04T01:44:38;100636.19;;;5.51;100.00
8641;BME280;4358;42.100;25.222;2023-12-04T01:47:05;100636.09;;;5.54;100.00
8641;BME280;4358;42.100;25.222;2023-12-04T01:49:33;100638.44;;;5.37;100.00
8641;BME280;4358;42.100;25.222;2023-12-04T01:52:01;100645.09;;;5.23;100.00
8641;BME280;4358;42.100;25.222;2023-12-04T01:54:29;100645.09;;;5.23;100.00
8641;BME280;4358;42.100;25.222;2023-12-04T01:56:56;100637.97;;;5.25;100.00
8641;BME280;4358;42.100;25.222;2023-12-04T01:59:25;100638.19;;;5.19;100.00
8641;BME280;4358;42.100;25.222;2023-12-04T02:01:53;100627.97;;;5.09;100.00
8641;BME280;4358;42.100;25.222;2023-12-04T02:04:19;100628.28;;;5.00;100.00
8641;BME280;4358;42.100;25.222;2023-12-04T02:06:46;100626.88;;;4.90;100.00
8641;BME280;4358;42.100;25.222;2023-12-04T02:09:13;100633.25;;;4.82;100.00
8641;BME280;4358;42.100;25.222;2023-12-04T02:11:41;100644.75;;;4.79;100.00
8641;BME280;4358;42.100;25.222;2023-12-04T02:14:08;100650.00;;;4.79;100.00
8641;BME280;4358;42.100;25.222;2023-12-04T02:16:40;100653.72;;;4.72;100.00
8641;BME280;4358;42.100;25.222;2023-12-04T02:19:08;100659.69;;;4.77;100.00
8641;BME280;4358;42.100;25.222;2023-12-04T02:21:38;100663.88;;;4.84;100.00
8641;BME280;4358;42.100;25.222;2023-12-04T02:24:07;100666.34;;;4.89;100.00
8641;BME280;4358;42.100;25.222;2023-12-04T02:26:38;100657.38;;;4.96;100.00
8641;BME280;4358;42.100;25.222;2023-12-04T02:29:11;100652.16;;;4.94;100.00
8641;BME280;4358;42.100;25.222;2023-12-04T02:31:41;100655.09;;;4.85;100.00
8641;BME280;4358;42.100;25.222;2023-12-04T02:34:09;100655.28;;;4.79;100.00
8641;BME280;4358;42.100;25.222;2023-12-04T02:36:37;100658.38;;;4.64;100.00
8641;BME280;4358;42.100;25.222;2023-12-04T02:39:06;100661.88;;;4.64;100.00
8641;BME280;4358;42.100;25.222;2023-12-04T02:41:34;100670.63;;;4.65;100.00
8641;BME280;4358;42.100;25.222;2023-12-04T02:44:01;100666.34;;;4.61;100.00
8641;BME280;4358;42.100;25.222;2023-12-04T02:46:29;100677.56;;;4.66;100.00
8641;BME280;4358;42.100;25.222;2023-12-04T02:48:55;100687.91;;;4.72;100.00
8641;BME280;4358;42.100;25.222;2023-12-04T02:51:22;100678.09;;;4.77;100.00
8641;BME280;4358;42.100;25.222;2023-12-04T02:53:51;100681.47;;;4.82;100.00
8641;BME280;4358;42.100;25.222;2023-12-04T02:56:20;100681.47;;;4.82;100.00
8641;BME280;4358;42.100;25.222;2023-12-04T02:58:47;100687.59;;;4.83;100.00
8641;BME280;4358;42.100;25.222;2023-12-04T03:01:14;100695.25;;;4.90;100.00
8641;BME280;4358;42.100;25.222;2023-12-04T03:03:41;100689.13;;;4.90;100.00
8641;BME280;4358;42.100;25.222;2023-12-04T03:06:08;100705.06;;;4.85;100.00
8641;BME280;4358;42.100;25.222;2023-12-04T03:08:35;100707.69;;;4.85;100.00
8641;BME280;4358;42.100;25.222;2023-12-04T03:11:02;100705.06;;;4.85;100.00
8641;BME280;4358;42.100;25.222;2023-12-04T03:13:31;100708.81;;;4.77;100.00
8641;BME280;4358;42.100;25.222;2023-12-04T03:15:58;100707.75;;;4.82;100.00
8641;BME280;4358;42.100;25.222;2023-12-04T03:18:25;100707.69;;;4.85;100.00
8641;BME280;4358;42.100;25.222;2023-12-04T03:20:54;100707.50;;;4.91;100.00
8641;BME280;4358;42.100;25.222;2023-12-04T03:23:21;100714.38;;;4.95;100.00
8641;BME280;4358;42.100;25.222;2023-12-04T03:25:48;100700.59;;;4.87;100.00
8641;BME280;4358;42.100;25.222;2023-12-04T03:28:15;100711.97;;;4.88;100.00
8641;BME280;4358;42.100;25.222;2023-12-04T03:30:44;100713.72;;;4.87;100.00
8641;BME280;4358;42.100;25.222;2023-12-04T03:33:11;100721.84;;;4.81;100.00
8641;BME280;4358;42.100;25.222;2023-12-04T03:35:38;100724.47;;;4.81;100.00
8641;BME280;4358;42.100;25.222;2023-12-04T03:38:05;100718.50;;;4.76;100.00
8641;BME280;4358;42.100;25.222;2023-12-04T03:40:32;100726.50;;;4.72;100.00
8641;BME280;4358;42.100;25.222;2023-12-04T03:42:58;100721.47;;;4.64;100.00
8641;BME280;4358;42.100;25.222;2023-12-04T03:45:25;100734.44;;;4.70;100.00
8641;BME280;4358;42.100;25.222;2023-12-04T03:47:54;100737.06;;;4.70;100.00
8641;BME280;4358;42.100;25.222;2023-12-04T03:50:21;100742.16;;;4.76;100.00
8641;BME280;4358;42.100;25.222;2023-12-04T03:52:48;100751.72;;;4.79;100.00
8641;BME280;4358;42.100;25.222;2023-12-04T03:55:15;100750.78;;;4.81;100.00
8641;BME280;4358;42.100;25.222;2023-12-04T03:57:44;100757.09;;;4.74;100.00
8641;BME280;4358;42.100;25.222;2023-12-04T04:00:12;100768.69;;;4.67;100.00
8641;BME280;4358;42.100;25.222;2023-12-04T04:02:40;100770.97;;;4.79;100.00
8641;BME280;4358;42.100;25.222;2023-12-04T04:05:08;100776.34;;;4.76;100.00
8641;BME280;4358;42.100;25.222;2023-12-04T04:07:36;100777.19;;;4.77;100.00
8641;BME280;4358;42.100;25.222;2023-12-04T04:10:03;100779.09;;;4.72;100.00
8641;BME280;4358;42.100;25.222;2023-12-04T04:12:31;100780.22;;;4.63;100.00
8641;BME280;4358;42.100;25.222;2023-12-04T04:14:58;100788.00;;;4.66;100.00
8641;BME280;4358;42.100;25.222;2023-12-04T04:17:25;100783.59;;;4.68;100.00
8641;BME280;4358;42.100;25.222;2023-12-04T04:19:52;100787.78;;;4.75;100.00
8641;BME280;4358;42.100;25.222;2023-12-04T04:22:20;100790.47;;;4.72;100.00
8641;BME280;4358;42.100;25.222;2023-12-04T04:24:48;100788.75;;;4.71;100.00
8641;BME280;4358;42.100;25.222;2023-12-04T04:27:15;100794.84;;;4.72;100.00
8641;BME280;4358;42.100;25.222;2023-12-04T04:29:42;100803.63;;;4.72;100.00
8641;BME280;4358;42.100;25.222;2023-12-04T04:32:10;100803.78;;;4.66;100.00
8641;BME280;4358;42.100;25.222;2023-12-04T04:34:37;100802.41;;;4.53;100.00
8641;BME280;4358;42.100;25.222;2023-12-04T04:37:04;100801.69;;;4.48;100.00
8641;BME280;4358;42.100;25.222;2023-12-04T04:39:32;100809.91;;;4.36;100.00
8641;BME280;4358;42.100;25.222;2023-12-04T04:41:59;100818.97;;;4.24;100.00
8641;BME280;4358;42.100;25.222;2023-12-04T04:44:26;100814.78;;;4.18;100.00
8641;BME280;4358;42.100;25.222;2023-12-04T04:46:53;100819.94;;;4.21;100.00
8641;BME280;4358;42.100;25.222;2023-12-04T04:49:20;100825.44;;;4.12;100.00
8641;BME280;4358;42.100;25.222;2023-12-04T04:51:47;100827.06;;;4.16;100.00
8641;BME280;4358;42.100;25.222;2023-12-04T04:54:14;100821.13;;;4.08;100.00
8641;BME280;4358;42.100;25.222;2023-12-04T04:56:42;100817.50;;;4.14;100.00
8641;BME280;4358;42.100;25.222;2023-12-04T04:59:09;100821.97;;;4.10;100.00
8641;BME280;4358;42.100;25.222;2023-12-04T05:01:36;100819.38;;;4.09;100.00
8641;BME280;4358;42.100;25.222;2023-12-04T05:04:03;100834.22;;;4.11;100.00
8641;BME280;4358;42.100;25.222;2023-12-04T05:06:30;100821.22;;;4.05;100.00
8641;BME280;4358;42.100;25.222;2023-12-04T05:08:57;100832.88;;;3.95;100.00
8641;BME280;4358;42.100;25.222;2023-12-04T05:11:24;100825.72;;;4.02;100.00
8641;BME280;4358;42.100;25.222;2023-12-04T05:13:52;100823.19;;;3.97;100.00
8641;BME280;4358;42.100;25.222;2023-12-04T05:16:19;100813.50;;;3.99;100.00
8641;BME280;4358;42.100;25.222;2023-12-04T05:18:46;100829.78;;;4.13;100.00
8641;BME280;4358;42.100;25.222;2023-12-04T05:21:14;100832.22;;;4.19;100.00
8641;BME280;4358;42.100;25.222;2023-12-04T05:23:41;100836.34;;;4.30;100.00
8641;BME280;4358;42.100;25.222;2023-12-04T05:26:08;100840.53;;;4.37;100.00
8641;BME280;4358;42.100;25.222;2023-12-04T05:28:35;100838.63;;;4.43;100.00
8641;BME280;4358;42.100;25.222;2023-12-04T05:31:03;100839.69;;;4.36;100.00
8641;BME280;4358;42.100;25.222;2023-12-04T05:33:31;100845.66;;;4.41;100.00
8641;BME280;4358;42.100;25.222;2023-12-04T05:36:00;100842.44;;;4.32;100.00
8641;BME280;4358;42.100;25.222;2023-12-04T05:38:27;100843.94;;;4.40;100.00
8641;BME280;4358;42.100;25.222;2023-12-04T05:40:54;100851.72;;;4.45;100.00
8641;BME280;4358;42.100;25.222;2023-12-04T05:43:21;100859.63;;;4.45;100.00
8641;BME280;4358;42.100;25.222;2023-12-04T05:45:48;100856.16;;;4.43;100.00
8641;BME280;4358;42.100;25.222;2023-12-04T05:48:16;100868.31;;;4.47;100.00
8641;BME280;4358;42.100;25.222;2023-12-04T05:50:52;100866.06;;;4.33;100.00
8641;BME280;4358;42.100;25.222;2023-12-04T05:53:19;100879.94;;;4.38;100.00
8641;BME280;4358;42.100;25.222;2023-12-04T05:55:46;100887.19;;;4.29;100.00
8641;BME280;4358;42.100;25.222;2023-12-04T05:58:13;100898.75;;;4.21;100.00
8641;BME280;4358;42.100;25.222;2023-12-04T06:00:40;100905.81;;;4.19;100.00
8641;BME280;4358;42.100;25.222;2023-12-04T06:03:07;100918.00;;;4.23;100.00
8641;BME280;4358;42.100;25.222;2023-12-04T06:05:35;100917.41;;;4.11;100.00
8641;BME280;4358;42.100;25.222;2023-12-04T06:08:02;100916.69;;;4.04;100.00
8641;BME280;4358;42.100;25.222;2023-12-04T06:10:30;100915.91;;;4.01;100.00
8641;BME280;4358;42.100;25.222;2023-12-04T06:12:57;100919.41;;;4.01;100.00
8641;BME280;4358;42.100;25.222;2023-12-04T06:15:24;100922.41;;;3.86;100.00
8641;BME280;4358;42.100;25.222;2023-12-04T06:17:51;100928.56;;;3.83;100.00
8641;BME280;4358;42.100;25.222;2023-12-04T06:20:18;100924.44;;;3.72;100.00
8641;BME280;4358;42.100;25.222;2023-12-04T06:22:47;100914.91;;;3.69;100.00
8641;BME280;4358;42.100;25.222;2023-12-04T06:25:15;100914.13;;;3.66;100.00
8641;BME280;4358;42.100;25.222;2023-12-04T06:27:43;100920.31;;;3.62;100.00
8641;BME280;4358;42.100;25.222;2023-12-04T06:30:11;100929.91;;;3.63;100.00
8641;BME280;4358;42.100;25.222;2023-12-04T06:32:39;100931.78;;;3.58;100.00
8641;BME280;4358;42.100;25.222;2023-12-04T06:35:07;100913.72;;;3.44;100.00
8641;BME280;4358;42.100;25.222;2023-12-04T06:37:36;100933.72;;;3.50;100.00
8641;BME280;4358;42.100;25.222;2023-12-04T06:40:07;100940.75;;;3.48;100.00
8641;BME280;4358;42.100;25.222;2023-12-04T06:42:37;100935.59;;;3.45;100.00
8641;BME280;4358;42.100;25.222;2023-12-04T06:45:05;100945.25;;;3.42;100.00
8641;BME280;4358;42.100;25.222;2023-12-04T06:47:34;100944.34;;;3.44;100.00
8641;BME280;4358;42.100;25.222;2023-12-04T06:50:01;100947.94;;;3.39;100.00
8641;BME280;4358;42.100;25.222;2023-12-04T06:52:28;100955.06;;;3.34;100.00
8641;BME280;4358;42.100;25.222;2023-12-04T06:54:55;100947.31;;;3.28;100.00
8641;BME280;4358;42.100;25.222;2023-12-04T06:57:23;100945.47;;;3.32;100.00
8641;BME280;4358;42.100;25.222;2023-12-04T06:59:50;100947.22;;;3.31;100.00
8641;BME280;4358;42.100;25.222;2023-12-04T07:02:17;100956.06;;;3.27;100.00
8641;BME280;4358;42.100;25.222;2023-12-04T07:04:44;100959.47;;;3.31;100.00
8641;BME280;4358;42.100;25.222;2023-12-04T07:07:11;100958.69;;;3.27;100.00
8641;BME280;4358;42.100;25.222;2023-12-04T07:09:38;100969.09;;;3.30;100.00
8641;BME280;4358;42.100;25.222;2023-12-04T07:12:05;100977.91;;;3.29;100.00
8641;BME280;4358;42.100;25.222;2023-12-04T07:14:34;100984.94;;;3.26;100.00
8641;BME280;4358;42.100;25.222;2023-12-04T07:17:01;100981.44;;;3.25;100.00
8641;BME280;4358;42.100;25.222;2023-12-04T07:19:28;100983.22;;;3.25;100.00
8641;BME280;4358;42.100;25.222;2023-12-04T07:21:56;100998.03;;;3.27;100.00
8641;BME280;4358;42.100;25.222;2023-12-04T07:24:23;100983.19;;;3.26;100.00
8641;BME280;4358;42.100;25.222;2023-12-04T07:26:52;100986.66;;;3.28;100.00
8641;BME280;4358;42.100;25.222;2023-12-04T07:29:18;100991.03;;;3.28;100.00
8641;BME280;4358;42.100;25.222;2023-12-04T07:31:46;100983.97;;;3.30;100.00
8641;BME280;4358;42.100;25.222;2023-12-04T07:34:13;100984.91;;;3.27;100.00
8641;BME280;4358;42.100;25.222;2023-12-04T07:36:40;100985.78;;;3.29;100.00
8641;BME280;4358;42.100;25.222;2023-12-04T07:39:07;100992.69;;;3.33;100.00
8641;BME280;4358;42.100;25.222;2023-12-04T07:41:34;100983.00;;;3.35;100.00
8641;BME280;4358;42.100;25.222;2023-12-04T07:44:01;100991.59;;;3.44;100.00
8641;BME280;4358;42.100;25.222;2023-12-04T07:46:29;100982.81;;;3.45;100.00
8641;BME280;4358;42.100;25.222;2023-12-04T07:48:57;101000.22;;;3.49;100.00
8641;BME280;4358;42.100;25.222;2023-12-04T07:51:24;101000.22;;;3.49;100.00
8641;BME280;4358;42.100;25.222;2023-12-04T07:53:51;101001.91;;;3.53;100.00
8641;BME280;4358;42.100;25.222;2023-12-04T07:56:18;101008.81;;;3.57;100.00
8641;BME280;4358;42.100;25.222;2023-12-04T07:58:45;101009.72;;;3.56;100.00
8641;BME280;4358;42.100;25.222;2023-12-04T08:01:12;101014.97;;;3.56;100.00
8641;BME280;4358;42.100;25.222;2023-12-04T08:03:39;101017.63;;;3.53;100.00
8641;BME280;4358;42.100;25.222;2023-12-04T08:06:08;101016.81;;;3.51;100.00
8641;BME280;4358;42.100;25.222;2023-12-04T08:08:35;101016.81;;;3.51;100.00
8641;BME280;4358;42.100;25.222;2023-12-04T08:11:02;101010.66;;;3.52;100.00
8641;BME280;4358;42.100;25.222;2023-12-04T08:13:29;101011.47;;;3.55;100.00
8641;BME280;4358;42.100;25.222;2023-12-04T08:15:56;101015.91;;;3.52;100.00
8641;BME280;4358;42.100;25.222;2023-12-04T08:18:23;101010.63;;;3.55;100.00
8641;BME280;4358;42.100;25.222;2023-12-04T08:20:51;101014.97;;;3.56;100.00
8641;BME280;4358;42.100;25.222;2023-12-04T08:23:19;101020.16;;;3.59;100.00
8641;BME280;4358;42.100;25.222;2023-12-04T08:25:46;101017.44;;;3.62;100.00
8641;BME280;4358;42.100;25.222;2023-12-04T08:28:14;101017.41;;;3.63;100.00
8641;BME280;4358;42.100;25.222;2023-12-04T08:30:41;101014.66;;;3.69;100.00
8641;BME280;4358;42.100;25.222;2023-12-04T08:33:08;101024.22;;;3.72;100.00
8641;BME280;4358;42.100;25.222;2023-12-04T08:35:35;101023.19;;;3.80;100.00
8641;BME280;4358;42.100;25.222;2023-12-04T08:38:02;101028.41;;;3.82;100.00
8641;BME280;4358;42.100;25.222;2023-12-04T08:40:30;101029.31;;;3.81;100.00
8641;BME280;4358;42.100;25.222;2023-12-04T08:42:57;101033.63;;;3.83;100.00
8641;BME280;4358;42.100;25.222;2023-12-04T08:45:24;101034.59;;;3.78;100.00
8641;BME280;4358;42.100;25.222;2023-12-04T08:47:51;101036.44;;;3.74;100.00
8641;BME280;4358;42.100;25.222;2023-12-04T08:50:18;101035.47;;;3.78;100.00
8641;BME280;4358;42.100;25.222;2023-12-04T08:52:45;101031.88;;;3.82;100.00
8641;BME280;4358;42.100;25.222;2023-12-04T08:55:12;101024.91;;;3.81;100.00
8641;BME280;4358;42.100;25.222;2023-12-04T08:57:41;101029.19;;;3.87;100.00
8641;BME280;4358;42.100;25.222;2023-12-04T09:00:09;101025.59;;;3.91;100.00
8641;BME280;4358;42.100;25.222;2023-12-04T09:02:36;101027.38;;;3.88;100.00
8641;BME280;4358;42.100;25.222;2023-12-04T09:05:03;101032.59;;;3.91;100.00
8641;BME280;4358;42.100;25.222;2023-12-04T09:07:31;101031.66;;;3.93;100.00
8641;BME280;4358;42.100;25.222;2023-12-04T09:09:59;101025.28;;;4.03;100.00
8641;BME280;4358;42.100;25.222;2023-12-04T09:12:26;101020.09;;;4.02;100.00
8641;BME280;4358;42.100;25.222;2023-12-04T09:14:55;101025.25;;;4.06;100.00
8641;BME280;4358;42.100;25.222;2023-12-04T09:17:22;101021.72;;;4.07;100.00
8641;BME280;4358;42.100;25.222;2023-12-04T09:19:49;101020.63;;;4.16;100.00
8641;BME280;4358;42.100;25.222;2023-12-04T09:22:16;101016.09;;;4.22;100.00
8641;BME280;4358;42.100;25.222;2023-12-04T09:24:43;101016.78;;;4.31;100.00
8641;BME280;4358;42.100;25.222;2023-12-04T09:27:10;101016.72;;;4.34;100.00
8641;BME280;4358;42.100;25.222;2023-12-04T09:29:37;101011.28;;;4.40;100.00
8641;BME280;4358;42.100;25.222;2023-12-04T09:32:06;101016.41;;;4.46;100.00
8641;BME280;4358;42.100;25.222;2023-12-04T09:34:33;101017.25;;;4.48;100.00
8641;BME280;4358;42.100;25.222;2023-12-04T09:36:59;101018.03;;;4.51;100.00
8641;BME280;4358;42.100;25.222;2023-12-04T09:39:27;101011.75;;;4.57;100.00
8641;BME280;4358;42.100;25.222;2023-12-04T09:41:55;101009.94;;;4.60;100.00
8641;BME280;4358;42.100;25.222;2023-12-04T09:44:24;101006.25;;;4.66;100.00
8641;BME280;4358;42.100;25.222;2023-12-04T09:46:51;101001.06;;;4.64;100.00
8641;BME280;4358;42.100;25.222;2023-12-04T09:49:20;101003.63;;;4.66;100.00
8641;BME280;4358;42.100;25.222;2023-12-04T09:51:47;101011.38;;;4.72;100.00
8641;BME280;4358;42.100;25.222;2023-12-04T09:54:16;101003.34;;;4.77;100.00
8641;BME280;4358;42.100;25.222;2023-12-04T09:56:45;101001.56;;;4.79;100.00
8641;BME280;4358;42.100;25.222;2023-12-04T09:59:13;101003.28;;;4.80;100.00
8641;BME280;4358;42.100;25.222;2023-12-04T10:01:43;101002.13;;;4.91;100.00
8641;BME280;4358;42.100;25.222;2023-12-04T10:04:12;100998.56;;;4.92;100.00
8641;BME280;4358;42.100;25.222;2023-12-04T10:06:42;100993.22;;;4.95;100.00
8641;BME280;4358;42.100;25.222;2023-12-04T10:09:10;100996.50;;;5.03;100.00
8641;BME280;4358;42.100;25.222;2023-12-04T10:11:40;100990.38;;;5.03;100.00
8641;BME280;4358;42.100;25.222;2023-12-04T10:14:14;101003.81;;;5.25;100.00
8641;BME280;4358;42.100;25.222;2023-12-04T10:16:42;101000.16;;;5.30;100.00
8641;BME280;4358;42.100;25.222;2023-12-04T10:19:17;101015.09;;;5.30;100.00
8641;BME280;4358;42.100;25.222;2023-12-04T10:21:47;101005.34;;;5.33;100.00
8641;BME280;4358;42.100;25.222;2023-12-04T10:24:32;101000.75;;;5.40;100.00
8641;BME280;4358;42.100;25.222;2023-12-04T10:27:01;101007.75;;;5.41;100.00
8641;BME280;4358;42.100;25.222;2023-12-04T10:29:40;101004.91;;;5.48;100.00
8641;BME280;4358;42.100;25.222;2023-12-04T10:32:07;100998.06;;;5.43;100.00
8641;BME280;4358;42.100;25.222;2023-12-04T10:34:34;100993.69;;;5.42;100.00
8641;BME280;4358;42.100;25.222;2023-12-04T10:37:04;100993.59;;;5.45;100.00
8641;BME280;4358;42.100;25.222;2023-12-04T10:39:32;100988.16;;;5.51;100.00
8641;BME280;4358;42.100;25.222;2023-12-04T10:42:15;100991.34;;;5.62;100.00
8641;BME280;4358;42.100;25.222;2023-12-04T10:44:49;100986.91;;;5.64;100.00
8641;BME280;4358;42.100;25.222;2023-12-04T10:47:16;100989.72;;;5.58;100.00
8641;BME280;4358;42.100;25.222;2023-12-04T10:49:49;100986.81;;;5.66;100.00
8641;BME280;4358;42.100;25.222;2023-12-04T10:52:17;100992.03;;;5.69;100.00
8641;BME280;4358;42.100;25.222;2023-12-04T10:54:46;100994.22;;;5.82;100.00
8641;BME280;4358;42.100;25.222;2023-12-04T10:57:18;100992.84;;;6.00;100.00
8641;BME280;4358;42.100;25.222;2023-12-04T10:59:48;100996.25;;;6.04;100.00
8641;BME280;4358;42.100;25.222;2023-12-04T11:02:21;100988.53;;;5.97;100.00
8641;BME280;4358;42.100;25.222;2023-12-04T11:04:50;100978.16;;;5.91;100.00
8641;BME280;4358;42.100;25.222;2023-12-04T11:07:24;100989.16;;;6.06;100.00
8641;BME280;4358;42.100;25.222;2023-12-04T11:09:53;100984.75;;;6.06;100.00
8641;BME280;4358;42.100;25.222;2023-12-04T11:12:25;100990.34;;;6.23;100.00
8641;BME280;4358;42.100;25.222;2023-12-04T11:14:57;100989.47;;;6.51;100.00
8641;BME280;4358;42.100;25.222;2023-12-04T11:17:30;100990.72;;;6.39;100.00
8641;BME280;4358;42.100;25.222;2023-12-04T11:20:05;100970.31;;;6.18;100.00
8641;BME280;4358;42.100;25.222;2023-12-04T11:22:36;100995.78;;;6.45;100.00
8641;BME280;4358;42.100;25.222;2023-12-04T11:25:06;101002.91;;;6.43;100.00
8641;BME280;4358;42.100;25.222;2023-12-04T11:27:34;101003.97;;;6.37;100.00
8641;BME280;4358;42.100;25.222;2023-12-04T11:30:01;100995.38;;;6.31;100.00
8641;BME280;4358;42.100;25.222;2023-12-04T11:32:29;101008.47;;;6.34;100.00
8641;BME280;4358;42.100;25.222;2023-12-04T11:34:59;101006.34;;;6.45;100.00
8641;BME280;4358;42.100;25.222;2023-12-04T11:37:28;101012.25;;;6.53;100.00
8641;BME280;4358;42.100;25.222;2023-12-04T11:39:56;101006.34;;;6.71;100.00
8641;BME280;4358;42.100;25.222;2023-12-04T11:42:24;101009.59;;;6.79;100.00
8641;BME280;4358;42.100;25.222;2023-12-04T11:44:56;101015.78;;;6.78;100.00
8641;BME280;4358;42.100;25.222;2023-12-04T11:47:24;101011.53;;;6.74;100.00
8641;BME280;4358;42.100;25.222;2023-12-04T11:49:51;101015.03;;;6.75;100.00
8641;BME280;4358;42.100;25.222;2023-12-04T11:52:32;101020.44;;;6.70;100.00
8641;BME280;4358;42.100;25.222;2023-12-04T11:55:02;101014.28;;;6.70;100.00
8641;BME280;4358;42.100;25.222;2023-12-04T11:57:32;101010.19;;;6.61;100.00
8641;BME280;4358;42.100;25.222;2023-12-04T12:00:11;101010.72;;;6.72;100.00
8641;BME280;4358;42.100;25.222;2023-12-04T12:02:40;101006.09;;;6.79;100.00
8641;BME280;4358;42.100;25.222;2023-12-04T12:05:08;101011.38;;;6.79;100.00
8641;BME280;4358;42.100;25.222;2023-12-04T12:07:35;101015.03;;;6.75;100.00
8641;BME280;4358;42.100;25.222;2023-12-04T12:10:04;101010.22;;;6.86;100.00
8641;BME280;4358;42.100;25.222;2023-12-04T12:12:32;101011.06;;;6.88;100.00
8641;BME280;4358;42.100;25.222;2023-12-04T12:14:59;101012.66;;;6.92;100.00
8641;BME280;4358;42.100;25.222;2023-12-04T12:17:26;101023.75;;;7.02;100.00
8641;BME280;4358;42.100;25.222;2023-12-04T12:19:54;101013.31;;;6.99;100.00
8641;BME280;4358;42.100;25.222;2023-12-04T12:22:22;101018.28;;;7.08;100.00
8641;BME280;4358;42.100;25.222;2023-12-04T12:24:49;101026.19;;;7.08;100.00
8641;BME280;4358;42.100;25.222;2023-12-04T12:27:18;101030.44;;;7.12;100.00
8641;BME280;4358;42.100;25.222;2023-12-04T12:29:45;101022.69;;;7.07;100.00
8641;BME280;4358;42.100;25.222;2023-12-04T12:32:12;101030.31;;;7.16;100.00
8641;BME280;4358;42.100;25.222;2023-12-04T12:34:39;101025.59;;;7.24;100.00
8641;BME280;4358;42.100;25.222;2023-12-04T12:37:08;101021.19;;;7.25;100.00
8641;BME280;4358;42.100;25.222;2023-12-04T12:39:35;101026.47;;;7.25;100.00
8641;BME280;4358;42.100;25.222;2023-12-04T12:42:02;101012.38;;;7.26;100.00
8641;BME280;4358;42.100;25.222;2023-12-04T12:44:38;101015.47;;;7.37;100.00
8641;BME280;4358;42.100;25.222;2023-12-04T12:47:06;101019.78;;;7.40;100.00
8641;BME280;4358;42.100;25.222;2023-12-04T12:49:33;101017.19;;;7.38;100.00
8641;BME280;4358;42.100;25.222;2023-12-04T12:52:01;101013.63;;;7.39;100.00
8641;BME280;4358;42.100;25.222;2023-12-04T12:54:28;101020.81;;;7.36;100.00
8641;BME280;4358;42.100;25.222;2023-12-04T12:56:58;101011.81;;;7.41;100.00
8641;BME280;4358;42.100;25.222;2023-12-04T12:59:26;101021.47;;;7.42;100.00
8641;BME280;4358;42.100;25.222;2023-12-04T13:01:55;101018.13;;;7.37;100.00
8641;BME280;4358;42.100;25.222;2023-12-04T13:04:22;101017.94;;;7.42;100.00